sensor_id;sensor_type;location;lat;lon;timestamp;temperature;humidity
8820;DHT22;4446;50.876;4.736;2022-09-03T00:01:09;16.90;99.90
8820;DHT22;4446;50.876;4.736;2022-09-03T00:03:42;17.00;99.90
8820;DHT22;4446;50.876;4.736;2022-09-03T00:06:13;17.00;99.90
8820;DHT22;4446;50.876;4.736;2022-09-03T00:08:45;17.10;99.90
8820;DHT22;4446;50.876;4.736;2022-09-03T00:11:19;17.20;99.90
8820;DHT22;4446;50.876;4.736;2022-09-03T00:13:56;17.20;99.90
8820;DHT22;4446;50.876;4.736;2022-09-03T00:16:28;17.20;99.90
8820;DHT22;4446;50.876;4.736;2022-09-03T00:18:59;17.20;99.90
8820;DHT22;4446;50.876;4.736;2022-09-03T00:21:34;17.40;99.90
8820;DHT22;4446;50.876;4.736;2022-09-03T00:24:04;17.50;99.90
8820;DHT22;4446;50.876;4.736;2022-09-03T00:26:33;17.70;99.90
8820;DHT22;4446;50.876;4.736;2022-09-03T00:29:08;17.80;99.90
8820;DHT22;4446;50.876;4.736;2022-09-03T00:31:38;18.00;99.90
8820;DHT22;4446;50.876;4.736;2022-09-03T00:34:13;18.00;99.90
8820;DHT22;4446;50.876;4.736;2022-09-03T00:36:43;18.00;99.90
8820;DHT22;4446;50.876;4.736;2022-09-03T00:39:12;18.10;99.90
8820;DHT22;4446;50.876;4.736;2022-09-03T00:41:47;18.10;99.90
8820;DHT22;4446;50.876;4.736;2022-09-03T00:44:36;18.20;99.90
8820;DHT22;4446;50.876;4.736;2022-09-03T00:47:11;18.30;99.90
8820;DHT22;4446;50.876;4.736;2022-09-03T00:49:49;18.40;99.90
8820;DHT22;4446;50.876;4.736;2022-09-03T00:52:25;18.40;99.90
8820;DHT22;4446;50.876;4.736;2022-09-03T00:55:10;18.40;99.90
8820;DHT22;4446;50.876;4.736;2022-09-03T00:57:49;18.50;99.90
8820;DHT22;4446;50.876;4.736;2022-09-03T01:00:20;18.50;99.90
8820;DHT22;4446;50.876;4.736;2022-09-03T01:02:56;18.50;99.90
8820;DHT22;4446;50.876;4.736;2022-09-03T01:05:41;18.50;99.90
8820;DHT22;4446;50.876;4.736;2022-09-03T01:08:28;18.50;99.90
8820;DHT22;4446;50.876;4.736;2022-09-03T01:11:07;18.50;99.90
8820;DHT22;4446;50.876;4.736;2022-09-03T01:13:40;18.50;99.90
8820;DHT22;4446;50.876;4.736;2022-09-03T01:16:20;18.40;99.90
8820;DHT22;4446;50.876;4.736;2022-09-03T01:18:57;18.30;99.90
8820;DHT22;4446;50.876;4.736;2022-09-03T01:21:43;18.40;99.90
8820;DHT22;4446;50.876;4.736;2022-09-03T01:24:38;18.30;99.90
8820;DHT22;4446;50.876;4.736;2022-09-03T01:27:21;18.40;99.90
8820;DHT22;4446;50.876;4.736;2022-09-03T01:30:02;18.40;99.90
8820;DHT22;4446;50.876;4.736;2022-09-03T01:32:36;18.40;99.90
8820;DHT22;4446;50.876;4.736;2022-09-03T01:35:13;18.30;99.90
8820;DHT22;4446;50.876;4.736;2022-09-03T01:37:52;18.30;99.90
8820;DHT22;4446;50.876;4.736;2022-09-03T01:40:29;18.30;99.90
8820;DHT22;4446;50.876;4.736;2022-09-03T01:43:15;18.30;99.90
8820;DHT22;4446;50.876;4.736;2022-09-03T01:45:52;18.40;99.90
8820;DHT22;4446;50.876;4.736;2022-09-03T01:48:31;18.40;99.90
8820;DHT22;4446;50.876;4.736;2022-09-03T01:51:10;18.40;99.90
8820;DHT22;4446;50.876;4.736;2022-09-03T01:56:40;18.50;99.90
8820;DHT22;4446;50.876;4.736;2022-09-03T01:59:16;18.50;99.90
8820;DHT22;4446;50.876;4.736;2022-09-03T02:01:52;18.60;99.90
8820;DHT22;4446;50.876;4.736;2022-09-03T02:04:21;18.60;99.90
8820;DHT22;4446;50.876;4.736;2022-09-03T02:06:49;18.70;99.90
8820;DHT22;4446;50.876;4.736;2022-09-03T02:09:18;18.70;99.90
8820;DHT22;4446;50.876;4.736;2022-09-03T02:11:50;18.80;99.90
8820;DHT22;4446;50.876;4.736;2022-09-03T02:14:18;18.70;99.90
8820;DHT22;4446;50.876;4.736;2022-09-03T02:16:46;18.70;99.90
8820;DHT22;4446;50.876;4.736;2022-09-03T02:19:16;18.60;99.90
8820;DHT22;4446;50.876;4.736;2022-09-03T02:21:48;18.60;99.90
8820;DHT22;4446;50.876;4.736;2022-09-03T02:24:16;18.60;99.90
8820;DHT22;4446;50.876;4.736;2022-09-03T02:26:43;18.60;99.90
8820;DHT22;4446;50.876;4.736;2022-09-03T02:29:12;18.50;99.90
8820;DHT22;4446;50.876;4.736;2022-09-03T02:31:39;18.50;99.90
8820;DHT22;4446;50.876;4.736;2022-09-03T02:34:07;18.50;99.90
8820;DHT22;4446;50.876;4.736;2022-09-03T02:36:37;18.50;99.90
8820;DHT22;4446;50.876;4.736;2022-09-03T02:39:05;18.50;99.90
8820;DHT22;4446;50.876;4.736;2022-09-03T02:41:33;18.50;99.90
8820;DHT22;4446;50.876;4.736;2022-09-03T02:44:03;18.50;99.90
8820;DHT22;4446;50.876;4.736;2022-09-03T02:46:34;18.50;99.90
8820;DHT22;4446;50.876;4.736;2022-09-03T02:49:03;18.40;99.90
8820;DHT22;4446;50.876;4.736;2022-09-03T02:51:37;18.40;99.90
8820;DHT22;4446;50.876;4.736;2022-09-03T02:54:05;18.40;99.90
8820;DHT22;4446;50.876;4.736;2022-09-03T02:56:32;18.40;99.90
8820;DHT22;4446;50.876;4.736;2022-09-03T02:58:59;18.30;99.90
8820;DHT22;4446;50.876;4.736;2022-09-03T03:01:27;18.30;99.90
8820;DHT22;4446;50.876;4.736;2022-09-03T03:03:54;18.20;99.90
8820;DHT22;4446;50.876;4.736;2022-09-03T03:06:21;18.20;99.90
8820;DHT22;4446;50.876;4.736;2022-09-03T03:08:50;18.30;99.90
8820;DHT22;4446;50.876;4.736;2022-09-03T03:11:20;18.30;99.90
8820;DHT22;4446;50.876;4.736;2022-09-03T03:13:48;18.30;99.90
8820;DHT22;4446;50.876;4.736;2022-09-03T03:16:16;18.30;99.90
8820;DHT22;4446;50.876;4.736;2022-09-03T03:18:44;18.30;99.90
8820;DHT22;4446;50.876;4.736;2022-09-03T03:21:13;18.20;99.90
8820;DHT22;4446;50.876;4.736;2022-09-03T03:23:41;18.30;99.90
8820;DHT22;4446;50.876;4.736;2022-09-03T03:26:11;18.20;99.90
8820;DHT22;4446;50.876;4.736;2022-09-03T03:28:39;18.10;99.90
8820;DHT22;4446;50.876;4.736;2022-09-03T03:31:07;18.10;99.90
8820;DHT22;4446;50.876;4.736;2022-09-03T03:33:36;18.10;99.90
8820;DHT22;4446;50.876;4.736;2022-09-03T03:36:05;18.00;99.90
8820;DHT22;4446;50.876;4.736;2022-09-03T03:38:32;18.00;99.90
8820;DHT22;4446;50.876;4.736;2022-09-03T03:41:06;18.00;99.90
8820;DHT22;4446;50.876;4.736;2022-09-03T03:43:35;17.90;99.90
8820;DHT22;4446;50.876;4.736;2022-09-03T03:46:03;17.90;99.90
8820;DHT22;4446;50.876;4.736;2022-09-03T03:48:30;17.90;99.90
8820;DHT22;4446;50.876;4.736;2022-09-03T03:51:00;17.90;99.90
8820;DHT22;4446;50.876;4.736;2022-09-03T03:53:28;17.90;99.90
8820;DHT22;4446;50.876;4.736;2022-09-03T03:55:56;17.90;99.90
8820;DHT22;4446;50.876;4.736;2022-09-03T03:58:24;17.90;99.90
8820;DHT22;4446;50.876;4.736;2022-09-03T04:00:53;17.90;99.90
8820;DHT22;4446;50.876;4.736;2022-09-03T04:03:20;18.00;99.90
8820;DHT22;4446;50.876;4.736;2022-09-03T04:05:54;18.00;99.90
8820;DHT22;4446;50.876;4.736;2022-09-03T04:08:22;18.00;99.90
8820;DHT22;4446;50.876;4.736;2022-09-03T04:10:49;18.00;99.90
8820;DHT22;4446;50.876;4.736;2022-09-03T04:13:16;18.00;99.90
8820;DHT22;4446;50.876;4.736;2022-09-03T04:15:43;17.90;99.90
8820;DHT22;4446;50.876;4.736;2022-09-03T04:18:12;17.90;99.90
8820;DHT22;4446;50.876;4.736;2022-09-03T04:20:39;17.90;99.90
8820;DHT22;4446;50.876;4.736;2022-09-03T04:23:06;17.90;99.90
8820;DHT22;4446;50.876;4.736;2022-09-03T04:25:33;17.90;99.90
8820;DHT22;4446;50.876;4.736;2022-09-03T04:28:00;17.90;99.90
8820;DHT22;4446;50.876;4.736;2022-09-03T04:30:29;17.90;99.90
8820;DHT22;4446;50.876;4.736;2022-09-03T04:32:56;17.90;99.90
8820;DHT22;4446;50.876;4.736;2022-09-03T04:35:26;17.80;99.90
8820;DHT22;4446;50.876;4.736;2022-09-03T04:37:58;17.80;99.90
8820;DHT22;4446;50.876;4.736;2022-09-03T04:40:26;17.80;99.90
8820;DHT22;4446;50.876;4.736;2022-09-03T04:42:56;17.80;99.90
8820;DHT22;4446;50.876;4.736;2022-09-03T04:45:24;17.70;99.90
8820;DHT22;4446;50.876;4.736;2022-09-03T04:47:58;17.70;99.90
8820;DHT22;4446;50.876;4.736;2022-09-03T04:50:27;17.70;99.90
8820;DHT22;4446;50.876;4.736;2022-09-03T04:52:55;17.60;99.90
8820;DHT22;4446;50.876;4.736;2022-09-03T04:55:25;17.60;99.90
8820;DHT22;4446;50.876;4.736;2022-09-03T04:57:52;17.50;99.90
8820;DHT22;4446;50.876;4.736;2022-09-03T05:00:19;17.50;99.90
8820;DHT22;4446;50.876;4.736;2022-09-03T05:02:46;17.50;99.90
8820;DHT22;4446;50.876;4.736;2022-09-03T05:05:17;17.50;99.90
8820;DHT22;4446;50.876;4.736;2022-09-03T05:07:45;17.50;99.90
8820;DHT22;4446;50.876;4.736;2022-09-03T05:10:13;17.60;99.90
8820;DHT22;4446;50.876;4.736;2022-09-03T05:12:45;17.80;99.90
8820;DHT22;4446;50.876;4.736;2022-09-03T05:15:12;17.90;99.90
8820;DHT22;4446;50.876;4.736;2022-09-03T05:17:40;17.90;99.90
8820;DHT22;4446;50.876;4.736;2022-09-03T05:20:07;17.90;99.90
8820;DHT22;4446;50.876;4.736;2022-09-03T05:22:35;17.90;99.90
8820;DHT22;4446;50.876;4.736;2022-09-03T05:25:04;17.90;99.90
8820;DHT22;4446;50.876;4.736;2022-09-03T05:27:31;17.80;99.90
8820;DHT22;4446;50.876;4.736;2022-09-03T05:29:58;17.80;99.90
8820;DHT22;4446;50.876;4.736;2022-09-03T05:32:25;17.80;99.90
8820;DHT22;4446;50.876;4.736;2022-09-03T05:34:53;17.80;99.90
8820;DHT22;4446;50.876;4.736;2022-09-03T05:37:21;17.80;99.90
8820;DHT22;4446;50.876;4.736;2022-09-03T05:39:48;17.80;99.90
8820;DHT22;4446;50.876;4.736;2022-09-03T05:42:17;17.80;99.90
8820;DHT22;4446;50.876;4.736;2022-09-03T05:44:44;17.70;99.90
8820;DHT22;4446;50.876;4.736;2022-09-03T05:47:11;17.70;99.90
8820;DHT22;4446;50.876;4.736;2022-09-03T05:49:38;17.70;99.90
8820;DHT22;4446;50.876;4.736;2022-09-03T05:52:05;17.80;99.90
8820;DHT22;4446;50.876;4.736;2022-09-03T05:54:33;17.70;99.90
8820;DHT22;4446;50.876;4.736;2022-09-03T05:57:00;17.80;99.90
8820;DHT22;4446;50.876;4.736;2022-09-03T05:59:28;17.80;99.90
8820;DHT22;4446;50.876;4.736;2022-09-03T06:01:55;17.90;99.90
8820;DHT22;4446;50.876;4.736;2022-09-03T06:04:22;18.00;99.90
8820;DHT22;4446;50.876;4.736;2022-09-03T06:06:49;18.10;99.90
8820;DHT22;4446;50.876;4.736;2022-09-03T06:09:17;18.20;99.90
8820;DHT22;4446;50.876;4.736;2022-09-03T06:11:45;18.30;99.90
8820;DHT22;4446;50.876;4.736;2022-09-03T06:14:14;18.40;99.90
8820;DHT22;4446;50.876;4.736;2022-09-03T06:16:44;18.60;99.90
8820;DHT22;4446;50.876;4.736;2022-09-03T06:19:14;18.70;99.90
8820;DHT22;4446;50.876;4.736;2022-09-03T06:21:42;18.80;99.90
8820;DHT22;4446;50.876;4.736;2022-09-03T06:24:12;19.00;99.90
8820;DHT22;4446;50.876;4.736;2022-09-03T06:26:39;19.00;99.90
8820;DHT22;4446;50.876;4.736;2022-09-03T06:29:06;19.20;99.90
8820;DHT22;4446;50.876;4.736;2022-09-03T06:31:33;19.20;99.90
8820;DHT22;4446;50.876;4.736;2022-09-03T06:34:02;19.30;99.90
8820;DHT22;4446;50.876;4.736;2022-09-03T06:36:31;19.30;99.90
8820;DHT22;4446;50.876;4.736;2022-09-03T06:38:58;19.30;99.90
8820;DHT22;4446;50.876;4.736;2022-09-03T06:41:28;19.40;99.90
8820;DHT22;4446;50.876;4.736;2022-09-03T06:43:57;19.50;99.90
8820;DHT22;4446;50.876;4.736;2022-09-03T06:46:29;19.50;99.90
8820;DHT22;4446;50.876;4.736;2022-09-03T06:48:56;19.50;99.90
8820;DHT22;4446;50.876;4.736;2022-09-03T06:51:27;19.50;99.90
8820;DHT22;4446;50.876;4.736;2022-09-03T06:53:58;19.50;99.90
8820;DHT22;4446;50.876;4.736;2022-09-03T06:56:25;19.40;99.90
8820;DHT22;4446;50.876;4.736;2022-09-03T06:58:54;19.40;99.90
8820;DHT22;4446;50.876;4.736;2022-09-03T07:01:23;19.50;99.90
8820;DHT22;4446;50.876;4.736;2022-09-03T07:03:52;19.60;99.90
8820;DHT22;4446;50.876;4.736;2022-09-03T07:06:23;19.60;99.90
8820;DHT22;4446;50.876;4.736;2022-09-03T07:08:52;19.70;99.90
8820;DHT22;4446;50.876;4.736;2022-09-03T07:11:21;20.00;99.90
8820;DHT22;4446;50.876;4.736;2022-09-03T07:13:50;20.20;99.90
8820;DHT22;4446;50.876;4.736;2022-09-03T07:16:19;20.30;99.90
8820;DHT22;4446;50.876;4.736;2022-09-03T07:18:47;20.50;99.90
8820;DHT22;4446;50.876;4.736;2022-09-03T07:21:16;20.60;99.90
8820;DHT22;4446;50.876;4.736;2022-09-03T07:23:44;20.80;99.90
8820;DHT22;4446;50.876;4.736;2022-09-03T07:26:15;20.80;99.90
8820;DHT22;4446;50.876;4.736;2022-09-03T07:28:45;20.90;99.90
8820;DHT22;4446;50.876;4.736;2022-09-03T07:31:14;21.10;99.90
8820;DHT22;4446;50.876;4.736;2022-09-03T07:33:43;21.20;99.90
8820;DHT22;4446;50.876;4.736;2022-09-03T07:36:11;21.30;99.90
8820;DHT22;4446;50.876;4.736;2022-09-03T07:38:39;21.40;99.90
8820;DHT22;4446;50.876;4.736;2022-09-03T07:41:08;21.50;99.90
8820;DHT22;4446;50.876;4.736;2022-09-03T07:43:38;21.50;99.90
8820;DHT22;4446;50.876;4.736;2022-09-03T07:46:06;21.60;99.90
8820;DHT22;4446;50.876;4.736;2022-09-03T07:48:33;21.80;99.90
8820;DHT22;4446;50.876;4.736;2022-09-03T07:51:00;21.80;99.90
8820;DHT22;4446;50.876;4.736;2022-09-03T07:53:28;21.90;99.90
8820;DHT22;4446;50.876;4.736;2022-09-03T07:56:00;22.00;99.90
8820;DHT22;4446;50.876;4.736;2022-09-03T07:58:28;22.10;99.90
8820;DHT22;4446;50.876;4.736;2022-09-03T08:00:57;22.10;99.90
8820;DHT22;4446;50.876;4.736;2022-09-03T08:03:25;22.10;99.90
8820;DHT22;4446;50.876;4.736;2022-09-03T08:05:52;22.00;99.90
8820;DHT22;4446;50.876;4.736;2022-09-03T08:08:20;22.10;99.90
8820;DHT22;4446;50.876;4.736;2022-09-03T08:10:48;22.00;99.90
8820;DHT22;4446;50.876;4.736;2022-09-03T08:13:15;21.90;99.90
8820;DHT22;4446;50.876;4.736;2022-09-03T08:15:42;21.70;99.90
8820;DHT22;4446;50.876;4.736;2022-09-03T08:18:10;21.70;99.90
8820;DHT22;4446;50.876;4.736;2022-09-03T08:20:38;21.60;99.90
8820;DHT22;4446;50.876;4.736;2022-09-03T08:23:05;21.40;99.90
8820;DHT22;4446;50.876;4.736;2022-09-03T08:25:32;21.20;99.90
8820;DHT22;4446;50.876;4.736;2022-09-03T08:27:59;21.10;99.90
8820;DHT22;4446;50.876;4.736;2022-09-03T08:30:26;21.00;99.90
8820;DHT22;4446;50.876;4.736;2022-09-03T08:32:54;20.90;99.90
8820;DHT22;4446;50.876;4.736;2022-09-03T08:35:23;21.00;99.90
8820;DHT22;4446;50.876;4.736;2022-09-03T08:37:50;21.00;99.90
8820;DHT22;4446;50.876;4.736;2022-09-03T08:40:19;20.90;99.90
8820;DHT22;4446;50.876;4.736;2022-09-03T08:43:01;21.00;99.90
8820;DHT22;4446;50.876;4.736;2022-09-03T08:45:35;21.20;99.90
8820;DHT22;4446;50.876;4.736;2022-09-03T08:48:06;21.30;99.90
8820;DHT22;4446;50.876;4.736;2022-09-03T08:50:39;21.40;99.90
8820;DHT22;4446;50.876;4.736;2022-09-03T08:53:11;21.60;99.90
8820;DHT22;4446;50.876;4.736;2022-09-03T08:55:46;21.70;99.90
8820;DHT22;4446;50.876;4.736;2022-09-03T08:58:17;21.90;99.90
8820;DHT22;4446;50.876;4.736;2022-09-03T09:00:51;22.20;99.90
8820;DHT22;4446;50.876;4.736;2022-09-03T09:03:41;22.40;99.90
8820;DHT22;4446;50.876;4.736;2022-09-03T09:06:19;22.70;99.90
8820;DHT22;4446;50.876;4.736;2022-09-03T09:09:04;23.00;99.90
8820;DHT22;4446;50.876;4.736;2022-09-03T09:11:42;23.20;99.90
8820;DHT22;4446;50.876;4.736;2022-09-03T09:14:18;23.50;99.90
8820;DHT22;4446;50.876;4.736;2022-09-03T09:16:52;23.50;99.90
8820;DHT22;4446;50.876;4.736;2022-09-03T09:19:30;23.40;99.90
8820;DHT22;4446;50.876;4.736;2022-09-03T09:22:09;23.30;99.90
8820;DHT22;4446;50.876;4.736;2022-09-03T09:24:40;23.20;99.90
8820;DHT22;4446;50.876;4.736;2022-09-03T09:27:09;23.20;99.90
8820;DHT22;4446;50.876;4.736;2022-09-03T09:29:45;23.30;99.90
8820;DHT22;4446;50.876;4.736;2022-09-03T09:32:13;23.10;99.90
8820;DHT22;4446;50.876;4.736;2022-09-03T09:34:43;23.20;99.90
8820;DHT22;4446;50.876;4.736;2022-09-03T09:37:14;23.40;99.90
8820;DHT22;4446;50.876;4.736;2022-09-03T09:39:54;23.60;99.90
8820;DHT22;4446;50.876;4.736;2022-09-03T09:42:22;23.70;99.90
8820;DHT22;4446;50.876;4.736;2022-09-03T09:44:50;23.70;99.90
8820;DHT22;4446;50.876;4.736;2022-09-03T09:47:22;24.10;99.90
8820;DHT22;4446;50.876;4.736;2022-09-03T09:49:51;24.10;99.90
8820;DHT22;4446;50.876;4.736;2022-09-03T09:52:21;24.10;99.90
8820;DHT22;4446;50.876;4.736;2022-09-03T09:54:52;24.30;99.90
8820;DHT22;4446;50.876;4.736;2022-09-03T09:57:23;24.40;99.90
8820;DHT22;4446;50.876;4.736;2022-09-03T10:00:02;24.40;99.90
8820;DHT22;4446;50.876;4.736;2022-09-03T10:02:34;24.40;99.90
8820;DHT22;4446;50.876;4.736;2022-09-03T10:05:12;24.50;99.90
8820;DHT22;4446;50.876;4.736;2022-09-03T10:07:41;24.60;99.90
8820;DHT22;4446;50.876;4.736;2022-09-03T10:10:17;24.50;99.90
8820;DHT22;4446;50.876;4.736;2022-09-03T10:12:49;24.40;99.90
8820;DHT22;4446;50.876;4.736;2022-09-03T10:15:22;24.50;99.90
8820;DHT22;4446;50.876;4.736;2022-09-03T10:17:56;24.70;99.90
8820;DHT22;4446;50.876;4.736;2022-09-03T10:20:30;24.90;99.90
8820;DHT22;4446;50.876;4.736;2022-09-03T10:23:13;25.10;99.90
8820;DHT22;4446;50.876;4.736;2022-09-03T10:25:59;25.40;99.90
8820;DHT22;4446;50.876;4.736;2022-09-03T10:28:32;25.60;99.90
8820;DHT22;4446;50.876;4.736;2022-09-03T10:31:12;25.80;99.90
8820;DHT22;4446;50.876;4.736;2022-09-03T10:33:47;25.80;99.90
8820;DHT22;4446;50.876;4.736;2022-09-03T10:36:21;26.10;99.90
8820;DHT22;4446;50.876;4.736;2022-09-03T10:38:54;26.10;99.90
8820;DHT22;4446;50.876;4.736;2022-09-03T10:41:37;26.20;99.90
8820;DHT22;4446;50.876;4.736;2022-09-03T10:44:26;26.20;99.90
8820;DHT22;4446;50.876;4.736;2022-09-03T10:47:11;26.20;99.90
8820;DHT22;4446;50.876;4.736;2022-09-03T10:49:49;26.20;99.90
8820;DHT22;4446;50.876;4.736;2022-09-03T10:52:26;26.20;99.90
8820;DHT22;4446;50.876;4.736;2022-09-03T10:55:09;26.40;99.90
8820;DHT22;4446;50.876;4.736;2022-09-03T10:57:47;26.50;99.90
8820;DHT22;4446;50.876;4.736;2022-09-03T11:00:16;26.40;99.90
8820;DHT22;4446;50.876;4.736;2022-09-03T11:05:57;26.00;99.90
8820;DHT22;4446;50.876;4.736;2022-09-03T11:08:27;25.70;99.90
8820;DHT22;4446;50.876;4.736;2022-09-03T11:11:06;25.50;99.90
8820;DHT22;4446;50.876;4.736;2022-09-03T11:13:39;25.50;99.90
8820;DHT22;4446;50.876;4.736;2022-09-03T11:16:14;25.50;99.90
8820;DHT22;4446;50.876;4.736;2022-09-03T11:18:48;25.50;99.90
8820;DHT22;4446;50.876;4.736;2022-09-03T11:21:19;25.50;99.90
8820;DHT22;4446;50.876;4.736;2022-09-03T11:23:51;25.50;99.90
8820;DHT22;4446;50.876;4.736;2022-09-03T11:26:22;25.60;99.90
8820;DHT22;4446;50.876;4.736;2022-09-03T11:28:55;25.80;99.90
8820;DHT22;4446;50.876;4.736;2022-09-03T11:31:31;25.90;99.90
8820;DHT22;4446;50.876;4.736;2022-09-03T11:34:05;26.10;99.90
8820;DHT22;4446;50.876;4.736;2022-09-03T11:36:34;26.30;99.90
8820;DHT22;4446;50.876;4.736;2022-09-03T11:39:12;26.30;99.90
8820;DHT22;4446;50.876;4.736;2022-09-03T11:41:42;26.20;99.90
8820;DHT22;4446;50.876;4.736;2022-09-03T11:44:17;26.20;99.90
8820;DHT22;4446;50.876;4.736;2022-09-03T11:46:53;26.10;99.90
8820;DHT22;4446;50.876;4.736;2022-09-03T11:49:28;26.00;99.90
8820;DHT22;4446;50.876;4.736;2022-09-03T11:51:59;25.90;99.90
8820;DHT22;4446;50.876;4.736;2022-09-03T11:54:30;25.90;99.90
8820;DHT22;4446;50.876;4.736;2022-09-03T11:57:12;25.90;99.90
8820;DHT22;4446;50.876;4.736;2022-09-03T11:59:42;26.00;99.90
8820;DHT22;4446;50.876;4.736;2022-09-03T12:02:19;25.80;99.90
8820;DHT22;4446;50.876;4.736;2022-09-03T12:05:02;25.80;99.90
8820;DHT22;4446;50.876;4.736;2022-09-03T12:07:43;25.90;99.90
8820;DHT22;4446;50.876;4.736;2022-09-03T12:10:22;26.00;99.90
8820;DHT22;4446;50.876;4.736;2022-09-03T12:13:00;26.00;99.90
8820;DHT22;4446;50.876;4.736;2022-09-03T12:15:47;26.10;99.90
8820;DHT22;4446;50.876;4.736;2022-09-03T12:18:22;26.10;99.90
8820;DHT22;4446;50.876;4.736;2022-09-03T12:21:01;26.40;99.90
8820;DHT22;4446;50.876;4.736;2022-09-03T12:23:30;26.90;99.90
8820;DHT22;4446;50.876;4.736;2022-09-03T12:26:01;27.20;99.90
8820;DHT22;4446;50.876;4.736;2022-09-03T12:28:33;27.30;99.90
8820;DHT22;4446;50.876;4.736;2022-09-03T12:31:06;27.10;99.90
8820;DHT22;4446;50.876;4.736;2022-09-03T12:33:47;27.00;99.90
8820;DHT22;4446;50.876;4.736;2022-09-03T12:36:14;26.80;99.90
8820;DHT22;4446;50.876;4.736;2022-09-03T12:38:41;26.70;99.90
8820;DHT22;4446;50.876;4.736;2022-09-03T12:41:33;26.90;99.90
8820;DHT22;4446;50.876;4.736;2022-09-03T12:44:02;27.10;99.90
8820;DHT22;4446;50.876;4.736;2022-09-03T12:46:31;27.20;99.90
8820;DHT22;4446;50.876;4.736;2022-09-03T12:49:01;27.40;99.90
8820;DHT22;4446;50.876;4.736;2022-09-03T12:51:32;27.40;99.90
8820;DHT22;4446;50.876;4.736;2022-09-03T12:54:00;27.50;99.90
8820;DHT22;4446;50.876;4.736;2022-09-03T12:56:28;27.40;99.90
8820;DHT22;4446;50.876;4.736;2022-09-03T12:58:59;27.20;99.90
8820;DHT22;4446;50.876;4.736;2022-09-03T13:01:32;27.40;99.90
8820;DHT22;4446;50.876;4.736;2022-09-03T13:04:04;27.80;99.90
8820;DHT22;4446;50.876;4.736;2022-09-03T13:06:39;27.70;99.90
8820;DHT22;4446;50.876;4.736;2022-09-03T13:09:07;27.90;99.90
8820;DHT22;4446;50.876;4.736;2022-09-03T13:11:35;28.10;99.90
8820;DHT22;4446;50.876;4.736;2022-09-03T13:14:04;28.10;99.90
8820;DHT22;4446;50.876;4.736;2022-09-03T13:20:04;27.80;99.90
8820;DHT22;4446;50.876;4.736;2022-09-03T13:22:38;27.70;99.90
8820;DHT22;4446;50.876;4.736;2022-09-03T13:25:15;27.40;99.90
8820;DHT22;4446;50.876;4.736;2022-09-03T13:27:53;27.90;99.90
8820;DHT22;4446;50.876;4.736;2022-09-03T13:30:29;28.10;99.90
8820;DHT22;4446;50.876;4.736;2022-09-03T13:33:01;28.10;99.90
8820;DHT22;4446;50.876;4.736;2022-09-03T13:35:37;28.20;99.90
8820;DHT22;4446;50.876;4.736;2022-09-03T13:38:12;28.40;99.90
8820;DHT22;4446;50.876;4.736;2022-09-03T13:40:45;28.70;99.90
8820;DHT22;4446;50.876;4.736;2022-09-03T13:43:22;28.70;99.90
8820;DHT22;4446;50.876;4.736;2022-09-03T13:45:56;28.40;99.90
8820;DHT22;4446;50.876;4.736;2022-09-03T13:48:29;28.80;99.90
8820;DHT22;4446;50.876;4.736;2022-09-03T13:51:20;29.20;99.90
8820;DHT22;4446;50.876;4.736;2022-09-03T13:53:58;29.20;99.90
8820;DHT22;4446;50.876;4.736;2022-09-03T13:56:37;29.10;99.90
8820;DHT22;4446;50.876;4.736;2022-09-03T13:59:15;29.00;99.90
8820;DHT22;4446;50.876;4.736;2022-09-03T14:01:57;29.20;99.90
8820;DHT22;4446;50.876;4.736;2022-09-03T14:04:39;29.30;99.90
8820;DHT22;4446;50.876;4.736;2022-09-03T14:07:14;29.50;99.90
8820;DHT22;4446;50.876;4.736;2022-09-03T14:09:50;29.80;99.90
8820;DHT22;4446;50.876;4.736;2022-09-03T14:12:20;30.00;99.90
8820;DHT22;4446;50.876;4.736;2022-09-03T14:14:53;30.10;99.90
8820;DHT22;4446;50.876;4.736;2022-09-03T14:17:31;30.10;99.90
8820;DHT22;4446;50.876;4.736;2022-09-03T14:20:05;30.20;99.90
8820;DHT22;4446;50.876;4.736;2022-09-03T14:22:44;29.70;99.90
8820;DHT22;4446;50.876;4.736;2022-09-03T14:25:15;29.60;99.90
8820;DHT22;4446;50.876;4.736;2022-09-03T14:27:43;29.60;99.90
8820;DHT22;4446;50.876;4.736;2022-09-03T14:30:24;29.90;99.90
8820;DHT22;4446;50.876;4.736;2022-09-03T14:32:57;30.40;99.90
8820;DHT22;4446;50.876;4.736;2022-09-03T14:35:47;30.40;99.90
8820;DHT22;4446;50.876;4.736;2022-09-03T14:41:37;29.70;99.90
8820;DHT22;4446;50.876;4.736;2022-09-03T14:44:26;29.50;99.90
8820;DHT22;4446;50.876;4.736;2022-09-03T14:47:12;29.20;99.90
8820;DHT22;4446;50.876;4.736;2022-09-03T14:49:57;29.10;99.90
8820;DHT22;4446;50.876;4.736;2022-09-03T14:55:48;28.40;99.90
8820;DHT22;4446;50.876;4.736;2022-09-03T14:58:38;28.20;99.90
8820;DHT22;4446;50.876;4.736;2022-09-03T15:01:11;28.10;99.90
8820;DHT22;4446;50.876;4.736;2022-09-03T15:06:50;28.30;99.90
8820;DHT22;4446;50.876;4.736;2022-09-03T15:09:29;28.20;99.90
8820;DHT22;4446;50.876;4.736;2022-09-03T15:12:04;28.20;99.90
8820;DHT22;4446;50.876;4.736;2022-09-03T15:14:38;28.30;99.90
8820;DHT22;4446;50.876;4.736;2022-09-03T15:17:25;28.50;99.90
8820;DHT22;4446;50.876;4.736;2022-09-03T15:20:06;28.90;99.90
8820;DHT22;4446;50.876;4.736;2022-09-03T15:23:01;29.10;99.90
8820;DHT22;4446;50.876;4.736;2022-09-03T15:25:39;29.60;99.90
8820;DHT22;4446;50.876;4.736;2022-09-03T15:28:16;30.50;99.90
8820;DHT22;4446;50.876;4.736;2022-09-03T15:30:50;31.20;99.90
8820;DHT22;4446;50.876;4.736;2022-09-03T15:33:28;31.90;99.40
8820;DHT22;4446;50.876;4.736;2022-09-03T15:36:11;32.80;98.50
8820;DHT22;4446;50.876;4.736;2022-09-03T15:38:46;33.40;97.40
8820;DHT22;4446;50.876;4.736;2022-09-03T15:41:28;33.10;97.50
8820;DHT22;4446;50.876;4.736;2022-09-03T15:44:07;32.60;97.60
8820;DHT22;4446;50.876;4.736;2022-09-03T15:46:47;31.00;99.20
8820;DHT22;4446;50.876;4.736;2022-09-03T15:49:35;30.10;99.90
8820;DHT22;4446;50.876;4.736;2022-09-03T15:52:20;29.80;99.90
8820;DHT22;4446;50.876;4.736;2022-09-03T15:54:57;29.40;99.90
8820;DHT22;4446;50.876;4.736;2022-09-03T15:57:32;28.90;99.90
8820;DHT22;4446;50.876;4.736;2022-09-03T16:00:07;28.40;99.90
8820;DHT22;4446;50.876;4.736;2022-09-03T16:02:41;28.00;99.90
8820;DHT22;4446;50.876;4.736;2022-09-03T16:05:13;27.50;99.90
8820;DHT22;4446;50.876;4.736;2022-09-03T16:08:00;27.20;99.90
8820;DHT22;4446;50.876;4.736;2022-09-03T16:10:40;26.90;99.90
8820;DHT22;4446;50.876;4.736;2022-09-03T16:13:37;26.70;99.90
8820;DHT22;4446;50.876;4.736;2022-09-03T16:16:08;26.60;99.90
8820;DHT22;4446;50.876;4.736;2022-09-03T16:18:39;26.40;99.90
8820;DHT22;4446;50.876;4.736;2022-09-03T16:21:13;26.30;99.90
8820;DHT22;4446;50.876;4.736;2022-09-03T16:23:50;26.60;99.90
8820;DHT22;4446;50.876;4.736;2022-09-03T16:26:22;26.90;99.90
8820;DHT22;4446;50.876;4.736;2022-09-03T16:28:53;26.90;99.90
8820;DHT22;4446;50.876;4.736;2022-09-03T16:31:36;26.80;99.90
8820;DHT22;4446;50.876;4.736;2022-09-03T16:34:14;26.60;99.90
8820;DHT22;4446;50.876;4.736;2022-09-03T16:36:51;26.30;99.90
8820;DHT22;4446;50.876;4.736;2022-09-03T16:39:31;25.90;99.90
8820;DHT22;4446;50.876;4.736;2022-09-03T16:42:11;25.40;99.90
8820;DHT22;4446;50.876;4.736;2022-09-03T16:44:53;24.40;99.90
8820;DHT22;4446;50.876;4.736;2022-09-03T16:47:36;23.90;99.90
8820;DHT22;4446;50.876;4.736;2022-09-03T16:50:16;23.60;99.90
8820;DHT22;4446;50.876;4.736;2022-09-03T16:52:58;23.70;99.90
8820;DHT22;4446;50.876;4.736;2022-09-03T16:55:31;24.30;99.90
8820;DHT22;4446;50.876;4.736;2022-09-03T16:58:09;25.10;99.90